createdAt,value
2019-03-28T00:02:16.138Z,99555.00
2019-03-28T00:07:24.242Z,99556.00
2019-03-28T00:12:30.232Z,99555.00
2019-03-28T00:17:36.021Z,99545.00
2019-03-28T00:22:50.388Z,99543.00
2019-03-28T00:27:57.250Z,99539.00
2019-03-28T00:33:03.674Z,99531.00
2019-03-28T00:38:10.212Z,99533.00
2019-03-28T00:43:16.801Z,99539.00
2019-03-28T00:48:23.432Z,99535.00
2019-03-28T00:53:31.156Z,99529.00
2019-03-28T00:58:36.773Z,99532.00
2019-03-28T01:03:44.179Z,99529.00
2019-03-28T01:08:51.165Z,99534.00
2019-03-28T01:13:58.260Z,99528.00
2019-03-28T01:19:05.969Z,99531.00
2019-03-28T01:24:13.432Z,99533.00
2019-03-28T01:29:19.080Z,99532.00
2019-03-28T01:34:24.830Z,99531.00
2019-03-28T01:39:30.690Z,99527.00
2019-03-28T01:44:38.434Z,99533.00
2019-03-28T01:49:45.397Z,99531.00
2019-03-28T01:54:52.652Z,99524.00
2019-03-28T01:59:58.518Z,99525.00
2019-03-28T02:05:07.399Z,99532.00
2019-03-28T02:10:14.296Z,99517.00
2019-03-28T02:15:21.196Z,99520.00
2019-03-28T02:20:28.313Z,99516.00
2019-03-28T02:25:46.928Z,99524.00
2019-03-28T02:30:52.615Z,99527.00
2019-03-28T02:35:59.627Z,99512.00
2019-03-28T02:41:07.106Z,99520.00
2019-03-28T02:46:13.590Z,99509.00
2019-03-28T02:51:41.105Z,99519.00
2019-03-28T02:56:47.983Z,99515.00
2019-03-28T03:01:53.637Z,99511.00
2019-03-28T03:07:00.910Z,99521.00
2019-03-28T03:12:07.849Z,99521.00
2019-03-28T03:17:13.638Z,99522.00
2019-03-28T03:22:20.158Z,99534.00
2019-03-28T03:27:26.681Z,99525.00
2019-03-28T03:32:33.476Z,99525.00
2019-03-28T03:37:39.945Z,99522.00
2019-03-28T03:42:47.781Z,99522.00
2019-03-28T03:47:54.463Z,99524.00
2019-03-28T03:53:02.694Z,99522.00
2019-03-28T03:58:16.181Z,99523.00
2019-03-28T04:03:19.872Z,99523.00
2019-03-28T04:08:27.171Z,99528.00
2019-03-28T04:13:34.448Z,99518.00
2019-03-28T04:18:41.931Z,99512.00
2019-03-28T04:23:48.393Z,99527.00
2019-03-28T04:28:55.151Z,99524.00
2019-03-28T04:34:07.409Z,99532.00
2019-03-28T04:39:09.830Z,99535.00
2019-03-28T04:44:16.413Z,99547.00
2019-03-28T04:49:21.980Z,99545.00
2019-03-28T04:54:27.645Z,99550.00
2019-03-28T04:59:33.409Z,99556.00
2019-03-28T05:04:40.506Z,99549.00
2019-03-28T05:09:47.523Z,99563.00
2019-03-28T05:14:54.000Z,99557.00
2019-03-28T05:20:01.531Z,99562.00
2019-03-28T05:25:09.002Z,99557.00
2019-03-28T05:30:16.007Z,99562.00
2019-03-28T05:35:23.940Z,99562.00
2019-03-28T05:40:29.699Z,99564.00
2019-03-28T05:45:35.487Z,99574.00
2019-03-28T05:50:41.131Z,99573.00
2019-03-28T05:55:47.327Z,99565.00
2019-03-28T06:00:53.273Z,99579.00
2019-03-28T06:06:01.078Z,99573.00
2019-03-28T06:11:07.601Z,99572.00
2019-03-28T06:16:14.153Z,99572.00
2019-03-28T06:21:23.062Z,99578.00
2019-03-28T06:26:30.114Z,99576.00
2019-03-28T06:31:36.669Z,99579.00
2019-03-28T06:37:01.786Z,99587.00
2019-03-28T06:42:08.969Z,99593.00
2019-03-28T06:47:15.572Z,99583.00
2019-03-28T06:52:21.954Z,99595.00
2019-03-28T06:57:27.724Z,99601.00
2019-03-28T07:02:33.922Z,99590.00
2019-03-28T07:07:40.448Z,99594.00
2019-03-28T07:12:46.975Z,99604.00
2019-03-28T07:17:53.630Z,99602.00
2019-03-28T07:23:00.119Z,99606.00
2019-03-28T07:28:06.745Z,99615.00
2019-03-28T07:33:13.007Z,99601.00
2019-03-28T07:38:20.461Z,99606.00
2019-03-28T07:43:27.026Z,99610.00
2019-03-28T07:48:32.763Z,99608.00
2019-03-28T07:53:40.136Z,99601.00
2019-03-28T07:58:46.664Z,99610.00
2019-03-28T08:03:53.207Z,99612.00
2019-03-28T08:09:00.928Z,99608.00
2019-03-28T08:14:08.643Z,99614.00
2019-03-28T08:19:15.257Z,99621.00
2019-03-28T08:24:20.916Z,99623.00
2019-03-28T08:29:27.501Z,99628.00
2019-03-28T08:34:33.386Z,99616.00
2019-03-28T08:39:44.479Z,99621.00
2019-03-28T08:44:50.797Z,99617.00
2019-03-28T08:49:58.813Z,99631.00
2019-03-28T08:55:10.441Z,99638.00
2019-03-28T09:00:32.313Z,99651.00
2019-03-28T09:05:25.284Z,99644.00
2019-03-28T09:10:32.384Z,99644.00
2019-03-28T09:15:43.972Z,99643.00
2019-03-28T09:20:46.668Z,99648.00
2019-03-28T09:25:55.351Z,99629.00
2019-03-28T09:31:02.145Z,99629.00
2019-03-28T09:36:07.757Z,99642.00
2019-03-28T09:41:14.625Z,99630.00
2019-03-28T09:46:20.311Z,99641.00
2019-03-28T09:51:27.138Z,99639.00
2019-03-28T09:56:33.199Z,99639.00
2019-03-28T10:01:38.869Z,99644.00
2019-03-28T10:06:45.731Z,99642.00
2019-03-28T10:11:53.347Z,99643.00
2019-03-28T10:16:59.732Z,99644.00
2019-03-28T10:22:07.336Z,99639.00
2019-03-28T10:27:14.254Z,99642.00
2019-03-28T10:32:32.741Z,99647.00
2019-03-28T10:37:39.515Z,99639.00
2019-03-28T10:42:46.245Z,99647.00
2019-03-28T10:47:53.652Z,99631.00
2019-03-28T10:53:00.990Z,99637.00
2019-03-28T10:58:18.342Z,99645.00
2019-03-28T11:03:17.961Z,99645.00
2019-03-28T11:08:27.460Z,99639.00
2019-03-28T11:13:34.815Z,99627.00
2019-03-28T11:18:43.159Z,99644.00
2019-03-28T11:23:49.642Z,99646.00
2019-03-28T11:29:00.835Z,99637.00
2019-03-28T11:34:06.601Z,99648.00
2019-03-28T11:39:13.529Z,99644.00
2019-03-28T11:44:21.400Z,99646.00
2019-03-28T11:49:28.392Z,99646.00
2019-03-28T11:54:34.471Z,99645.00
2019-03-28T11:59:40.649Z,99649.00
2019-03-28T12:04:48.855Z,99647.00
2019-03-28T12:09:55.974Z,99640.00
2019-03-28T12:15:02.461Z,99641.00
2019-03-28T12:20:21.053Z,99644.00
2019-03-28T12:25:28.529Z,99649.00
2019-03-28T12:30:34.607Z,99650.00
2019-03-28T12:35:43.641Z,99650.00
2019-03-28T12:40:51.476Z,99653.00
2019-03-28T12:45:57.943Z,99648.00
2019-03-28T12:51:05.928Z,99647.00
2019-03-28T12:56:12.961Z,99649.00
2019-03-28T13:01:20.873Z,99660.00
2019-03-28T13:06:26.851Z,99649.00
2019-03-28T13:11:32.819Z,99648.00
2019-03-28T13:16:39.716Z,99663.00
2019-03-28T13:21:46.111Z,99644.00
2019-03-28T13:26:53.486Z,99649.00
2019-03-28T13:32:03.071Z,99643.00
2019-03-28T13:37:10.867Z,99652.00
2019-03-28T13:42:17.652Z,99647.00
2019-03-28T13:47:24.628Z,99653.00
2019-03-28T13:52:32.268Z,99640.00
2019-03-28T13:57:39.174Z,99631.00
2019-03-28T14:02:55.854Z,99649.00
2019-03-28T14:07:56.577Z,99631.00
2019-03-28T14:13:03.329Z,99646.00
2019-03-28T14:18:11.029Z,99644.00
2019-03-28T14:23:19.279Z,99638.00
2019-03-28T14:28:26.460Z,99647.00
2019-03-28T14:33:32.551Z,99644.00
2019-03-28T14:38:42.004Z,99645.00
2019-03-28T14:43:49.080Z,99646.00
2019-03-28T14:48:57.027Z,99641.00
2019-03-28T14:54:03.908Z,99655.00
2019-03-28T14:59:12.020Z,99648.00
2019-03-28T15:04:18.945Z,99642.00
2019-03-28T15:09:26.744Z,99656.00
2019-03-28T15:14:35.357Z,99650.00
2019-03-28T15:19:42.157Z,99643.00
2019-03-28T15:24:51.864Z,99642.00
2019-03-28T15:29:58.757Z,99638.00
2019-03-28T15:35:07.072Z,99635.00
2019-03-28T15:40:14.691Z,99644.00
2019-03-28T15:45:23.283Z,99640.00
2019-03-28T15:50:31.962Z,99641.00
2019-03-28T15:55:41.658Z,99634.00
2019-03-28T16:00:49.750Z,99643.00
2019-03-28T16:05:58.842Z,99636.00
2019-03-28T16:11:05.821Z,99638.00
2019-03-28T16:16:13.433Z,99649.00
2019-03-28T16:21:21.628Z,99642.00
2019-03-28T16:26:30.127Z,99647.00
2019-03-28T16:31:37.762Z,99646.00
2019-03-28T16:36:47.010Z,99653.00
2019-03-28T16:41:56.519Z,99654.00
2019-03-28T16:47:03.741Z,99647.00
2019-03-28T16:52:12.915Z,99645.00
2019-03-28T16:57:40.836Z,99661.00
2019-03-28T17:02:50.592Z,99652.00
2019-03-28T17:07:59.235Z,99655.00
2019-03-28T17:13:08.478Z,99654.00
2019-03-28T17:18:18.708Z,99655.00
2019-03-28T17:23:25.299Z,99666.00
2019-03-28T17:28:33.929Z,99667.00
2019-03-28T17:33:42.262Z,99670.00
2019-03-28T17:38:51.559Z,99667.00
2019-03-28T17:43:58.323Z,99671.00
2019-03-28T17:49:05.400Z,99671.00
2019-03-28T17:54:13.763Z,99683.00
2019-03-28T17:59:22.041Z,99697.00
2019-03-28T18:04:29.593Z,99691.00
2019-03-28T18:09:37.788Z,99698.00
2019-03-28T18:14:46.987Z,99698.00
2019-03-28T18:19:53.816Z,99698.00
2019-03-28T18:24:59.774Z,99716.00
2019-03-28T18:30:09.296Z,99712.00
2019-03-28T18:35:15.561Z,99714.00
2019-03-28T18:40:22.499Z,99722.00
2019-03-28T18:45:28.539Z,99723.00
2019-03-28T18:50:36.192Z,99726.00
2019-03-28T18:55:43.304Z,99736.00
2019-03-28T19:00:49.257Z,99733.00
2019-03-28T19:05:55.243Z,99731.00
2019-03-28T19:11:01.230Z,99736.00
2019-03-28T19:16:08.007Z,99736.00
2019-03-28T19:21:14.909Z,99747.00
2019-03-28T19:26:20.885Z,99735.00
2019-03-28T19:31:27.741Z,99740.00
2019-03-28T19:36:35.379Z,99748.00
2019-03-28T19:41:41.360Z,99748.00
2019-03-28T19:46:47.333Z,99741.00
2019-03-28T19:51:54.846Z,99752.00
2019-03-28T19:57:04.085Z,99749.00
2019-03-28T20:02:14.365Z,99751.00
2019-03-28T20:07:23.885Z,99754.00
2019-03-28T20:12:33.169Z,99754.00
2019-03-28T20:17:41.332Z,99749.00
2019-03-28T20:22:49.180Z,99758.00
2019-03-28T20:27:57.761Z,99757.00
2019-03-28T20:33:07.618Z,99751.00
2019-03-28T20:38:16.459Z,99755.00
2019-03-28T20:43:23.730Z,99750.00
2019-03-28T20:48:32.460Z,99749.00
2019-03-28T20:58:50.914Z,99759.00
2019-03-28T21:04:00.384Z,99755.00
2019-03-28T21:09:10.588Z,99759.00
2019-03-28T21:14:21.815Z,99756.00
2019-03-28T21:19:30.861Z,99757.00
2019-03-28T21:24:38.171Z,99749.00
2019-03-28T21:29:49.008Z,99752.00
2019-03-28T21:34:57.795Z,99755.00
2019-03-28T21:40:08.014Z,99760.00
2019-03-28T21:45:15.628Z,99745.00
2019-03-28T21:50:22.550Z,99744.00
2019-03-28T21:55:29.727Z,99745.00
2019-03-28T22:00:37.079Z,99752.00
2019-03-28T22:05:44.539Z,99756.00
2019-03-28T22:10:51.680Z,99752.00
2019-03-28T22:15:58.414Z,99755.00
2019-03-28T22:21:06.228Z,99759.00
2019-03-28T22:26:14.846Z,99762.00
2019-03-28T22:31:23.336Z,99764.00
2019-03-28T22:36:30.956Z,99763.00
2019-03-28T22:41:37.019Z,99753.00
2019-03-28T22:46:42.987Z,99759.00
2019-03-28T22:51:49.472Z,99754.00
2019-03-28T22:56:56.778Z,99751.00
2019-03-28T23:02:03.953Z,99758.00
2019-03-28T23:07:14.599Z,99752.00
2019-03-28T23:12:21.863Z,99758.00
2019-03-28T23:17:28.415Z,99764.00
2019-03-28T23:22:35.547Z,99757.00
2019-03-28T23:27:43.751Z,99761.00
2019-03-28T23:32:52.404Z,99756.00
2019-03-28T23:38:01.871Z,99759.00
2019-03-28T23:43:09.817Z,99768.00
2019-03-28T23:48:18.247Z,99766.00
2019-03-28T23:53:26.640Z,99775.00
2019-03-28T23:58:34.257Z,99772.00
